Time;durP1;ratioP1;P1;durP2;ratioP2;P2;SDS_P1;SDS_P2;PMS_P1;PMS_P2;Temp;Humidity;BMP_temperature;BMP_pressure;BME280_temperature;BME280_humidity;BME280_pressure;Samples;Min_cycle;Max_cycle;Signal;HPM_P1;HPM_P2
2021/08/30 04:31:37;;;;;;;13.97;12.00;;;14.10;99.90;;;;;;5540902;23;20500;-79
2021/08/30 04:34:03;;;;;;;14.03;10.93;;;14.20;99.90;;;;;;4936602;29;20410;-80
2021/08/30 04:36:29;;;;;;;14.73;11.37;;;14.20;99.90;;;;;;4931746;29;20177;-80
2021/08/30 04:38:54;;;;;;;15.57;12.80;;;14.10;99.90;;;;;;4939722;29;20209;-80
2021/08/30 04:41:20;;;;;;;15.07;12.47;;;14.20;99.90;;;;;;4931716;29;20213;-80
2021/08/30 04:43:46;;;;;;;15.20;12.30;;;14.20;99.90;;;;;;4920252;29;20203;-78
2021/08/30 04:46:11;;;;;;;17.00;13.53;;;14.20;99.90;;;;;;4921205;29;20177;-80
2021/08/30 04:48:37;;;;;;;16.60;12.97;;;14.10;99.90;;;;;;4921594;29;20423;-80
2021/08/30 04:51:03;;;;;;;18.00;12.90;;;14.20;99.90;;;;;;4920917;29;20714;-79
2021/08/30 04:53:29;;;;;;;17.63;12.20;;;14.20;99.90;;;;;;4922285;29;20549;-81
2021/08/30 04:55:54;;;;;;;24.00;13.67;;;14.20;99.90;;;;;;4923107;29;20436;-79
2021/08/30 04:58:20;;;;;;;18.63;12.63;;;14.30;99.90;;;;;;4922401;29;20232;-78
2021/08/30 05:00:45;;;;;;;16.50;13.20;;;14.30;99.90;;;;;;4921414;29;20269;-79
2021/08/30 05:03:11;;;;;;;18.20;11.50;;;14.30;99.90;;;;;;4918967;29;20220;-79
2021/08/30 05:05:36;;;;;;;20.30;12.20;;;14.30;99.90;;;;;;4919033;29;20229;-78
2021/08/30 05:08:02;;;;;;;15.70;12.10;;;14.20;99.90;;;;;;4918943;29;20240;-78
2021/08/30 05:10:28;;;;;;;17.37;11.50;;;14.20;99.90;;;;;;4918089;29;20204;-77
2021/08/30 05:12:53;;;;;;;13.87;11.50;;;14.20;99.90;;;;;;4918700;29;20189;-78
2021/08/30 05:15:19;;;;;;;15.30;12.20;;;14.20;99.90;;;;;;4918212;29;20196;-78
2021/08/30 05:17:45;;;;;;;17.70;12.17;;;14.20;99.90;;;;;;4918665;29;20220;-77
2021/08/30 05:20:11;;;;;;;15.10;12.30;;;14.20;99.90;;;;;;4917995;29;20422;-78
2021/08/30 05:22:36;;;;;;;18.63;13.67;;;14.20;99.90;;;;;;4918024;29;20213;-77
2021/08/30 05:25:03;;;;;;;18.87;13.23;;;14.20;99.90;;;;;;4918465;29;20517;-77
2021/08/30 05:27:28;;;;;;;13.57;11.90;;;14.20;99.90;;;;;;4918028;29;20190;-78
2021/08/30 05:29:54;;;;;;;16.60;12.30;;;14.20;99.90;;;;;;4918251;29;20426;-78
2021/08/30 05:32:21;;;;;;;18.40;13.67;;;14.30;99.90;;;;;;4917804;29;20214;-78
2021/08/30 05:34:46;;;;;;;18.80;12.47;;;14.30;99.90;;;;;;4918407;29;20434;-79
2021/08/30 05:37:12;;;;;;;15.30;13.50;;;14.30;99.90;;;;;;4917923;29;20876;-77
2021/08/30 05:39:37;;;;;;;14.53;13.00;;;14.30;99.90;;;;;;4917134;29;20598;-78
2021/08/30 05:42:03;;;;;;;20.87;13.90;;;14.30;99.90;;;;;;4917541;29;20766;-77
2021/08/30 05:44:28;;;;;;;19.20;13.53;;;14.30;99.90;;;;;;4916942;29;20951;-78
2021/08/30 05:46:54;;;;;;;17.53;14.23;;;14.30;99.90;;;;;;4918286;29;20174;-78
2021/08/30 05:49:20;;;;;;;15.33;12.23;;;14.30;99.90;;;;;;4918501;29;20194;-78
2021/08/30 05:51:47;;;;;;;15.83;13.57;;;14.30;99.90;;;;;;4916508;29;20209;-79
2021/08/30 05:54:13;;;;;;;20.23;14.50;;;14.30;99.90;;;;;;4917759;29;20182;-78
2021/08/30 05:56:38;;;;;;;15.90;12.27;;;14.40;99.90;;;;;;4918145;29;20961;-78
2021/08/30 05:59:04;;;;;;;15.87;12.00;;;14.40;99.90;;;;;;4917974;29;20488;-79
2021/08/30 06:01:29;;;;;;;20.93;12.30;;;14.40;99.90;;;;;;4917969;29;20230;-78
2021/08/30 06:03:55;;;;;;;14.97;13.00;;;14.40;99.90;;;;;;4917674;29;20174;-79
2021/08/30 06:06:21;;;;;;;17.87;13.30;;;14.50;99.90;;;;;;4902285;29;20190;-79
2021/08/30 06:08:49;;;;;;;17.17;12.70;;;14.50;99.90;;;;;;4894633;29;20225;-78
2021/08/30 06:11:15;;;;;;;13.07;11.67;;;14.50;99.90;;;;;;4910833;29;20210;-78
2021/08/30 06:13:40;;;;;;;19.97;13.53;;;14.50;99.90;;;;;;4898886;29;20913;-78
2021/08/30 06:16:06;;;;;;;15.93;12.50;;;14.60;99.90;;;;;;4899281;29;20258;-78
2021/08/30 06:18:31;;;;;;;14.23;12.27;;;14.70;99.90;;;;;;4898868;29;20246;-76
2021/08/30 06:20:57;;;;;;;12.33;11.03;;;14.80;99.90;;;;;;4896470;29;20195;-76
2021/08/30 06:23:22;;;;;;;19.67;12.77;;;14.80;99.90;;;;;;4896365;29;20193;-76
2021/08/30 06:25:48;;;;;;;15.80;11.87;;;14.90;99.90;;;;;;4896589;29;20171;-76
2021/08/30 06:28:14;;;;;;;15.10;12.20;;;14.90;99.90;;;;;;4896237;29;20183;-76
2021/08/30 06:30:40;;;;;;;19.03;11.70;;;15.00;99.90;;;;;;4896246;29;20182;-77
2021/08/30 06:33:05;;;;;;;12.90;11.63;;;15.10;99.90;;;;;;4896543;29;20214;-77
2021/08/30 06:35:31;;;;;;;11.60;10.33;;;15.30;99.90;;;;;;4899154;29;20490;-77
2021/08/30 06:37:57;;;;;;;14.03;10.73;;;15.40;99.90;;;;;;4898965;29;20242;-78
2021/08/30 06:40:23;;;;;;;13.07;11.50;;;15.40;99.90;;;;;;4899944;29;20191;-78
2021/08/30 06:42:49;;;;;;;13.17;10.83;;;15.50;99.90;;;;;;4902576;29;20202;-78
2021/08/30 06:45:15;;;;;;;14.93;10.83;;;15.50;99.90;;;;;;4901563;29;20935;-78
2021/08/30 06:47:42;;;;;;;12.23;9.57;;;15.50;99.90;;;;;;4907994;29;20191;-79
2021/08/30 06:50:08;;;;;;;17.30;11.70;;;15.40;99.90;;;;;;4912957;29;20791;-78
2021/08/30 06:52:34;;;;;;;14.90;11.10;;;15.40;99.90;;;;;;4914817;29;20458;-78
2021/08/30 06:54:59;;;;;;;16.23;11.30;;;15.40;99.90;;;;;;4908061;29;20446;-78
2021/08/30 06:57:25;;;;;;;16.37;10.53;;;15.40;99.90;;;;;;4920295;29;20217;-79
2021/08/30 06:59:50;;;;;;;12.00;10.90;;;15.30;99.90;;;;;;4921024;29;20289;-77
2021/08/30 07:02:16;;;;;;;12.10;10.90;;;15.30;99.90;;;;;;4919663;29;20278;-79
2021/08/30 07:04:41;;;;;;;14.03;11.80;;;15.30;99.90;;;;;;4921536;29;20193;-77
2021/08/30 07:07:07;;;;;;;12.30;11.10;;;15.40;99.90;;;;;;4920718;29;20179;-78
2021/08/30 07:09:32;;;;;;;13.27;10.27;;;15.40;99.90;;;;;;4921778;29;20174;-78
2021/08/30 07:11:58;;;;;;;11.40;9.70;;;15.40;99.90;;;;;;4920969;29;20207;-78
2021/08/30 07:14:23;;;;;;;12.00;10.80;;;15.40;99.90;;;;;;4920711;29;20260;-78
2021/08/30 07:16:49;;;;;;;13.13;11.10;;;15.40;99.90;;;;;;4921409;29;20186;-78
2021/08/30 07:19:14;;;;;;;13.03;11.10;;;15.40;99.90;;;;;;4914052;29;20218;-78
2021/08/30 07:21:40;;;;;;;12.80;10.73;;;15.60;99.90;;;;;;4919488;29;20206;-76
2021/08/30 07:24:06;;;;;;;11.70;10.57;;;15.60;99.90;;;;;;4917226;29;20687;-76
2021/08/30 07:26:32;;;;;;;13.60;11.10;;;15.60;99.90;;;;;;4917788;29;20205;-76
2021/08/30 07:28:57;;;;;;;12.37;11.07;;;15.60;99.90;;;;;;4917568;29;20261;-76
2021/08/30 07:31:23;;;;;;;11.40;10.07;;;15.60;99.90;;;;;;4914284;29;20229;-75
2021/08/30 07:33:48;;;;;;;14.20;10.03;;;15.70;99.90;;;;;;4917233;29;20201;-78
2021/08/30 07:36:15;;;;;;;11.93;10.60;;;15.60;99.90;;;;;;4917710;29;20224;-77
2021/08/30 07:38:41;;;;;;;12.63;10.40;;;15.60;99.90;;;;;;4917923;29;20265;-77
2021/08/30 07:41:07;;;;;;;14.97;11.37;;;15.60;99.90;;;;;;4917608;29;20913;-76
2021/08/30 07:43:32;;;;;;;13.00;10.50;;;15.70;99.90;;;;;;4917199;29;20512;-76
2021/08/30 07:46:00;;;;;;;14.20;10.73;;;15.60;99.90;;;;;;4917348;29;20193;-76
2021/08/30 07:48:25;;;;;;;14.33;10.97;;;15.60;99.90;;;;;;4917049;29;20178;-78
2021/08/30 07:50:51;;;;;;;12.47;10.10;;;15.60;99.90;;;;;;4916805;29;20445;-77
2021/08/30 07:53:17;;;;;;;12.87;9.97;;;15.60;99.90;;;;;;4915842;29;20178;-76
2021/08/30 07:55:42;;;;;;;13.63;11.00;;;15.60;99.90;;;;;;4916236;29;20315;-77
2021/08/30 07:58:08;;;;;;;12.47;11.27;;;15.60;99.90;;;;;;4916900;29;20292;-76
2021/08/30 08:00:33;;;;;;;12.00;10.77;;;15.50;99.90;;;;;;4916945;29;20171;-75
2021/08/30 08:02:59;;;;;;;12.80;11.50;;;15.40;99.90;;;;;;4916832;29;20189;-76
2021/08/30 08:05:25;;;;;;;12.37;11.07;;;15.40;99.90;;;;;;4915873;29;20182;-76
2021/08/30 08:07:50;;;;;;;12.80;10.60;;;15.40;99.90;;;;;;4905908;29;20185;-76
2021/08/30 08:10:16;;;;;;;11.13;10.13;;;15.50;99.90;;;;;;4916446;29;20188;-76
2021/08/30 08:12:42;;;;;;;12.03;10.47;;;15.50;99.90;;;;;;4916714;29;20254;-76
2021/08/30 08:15:09;;;;;;;16.83;12.27;;;15.50;99.90;;;;;;4914484;29;20616;-77
2021/08/30 08:17:34;;;;;;;12.13;9.90;;;15.50;99.90;;;;;;4908155;29;20222;-76
2021/08/30 08:20:02;;;;;;;11.67;10.00;;;15.50;99.90;;;;;;4897454;29;20820;-76
2021/08/30 08:22:30;;;;;;;10.37;8.90;;;15.60;99.90;;;;;;4910457;29;20322;-76
2021/08/30 08:24:59;;;;;;;11.77;10.30;;;15.60;99.90;;;;;;4915471;29;20422;-76
2021/08/30 08:27:25;;;;;;;13.27;10.20;;;15.60;99.90;;;;;;4916661;29;20418;-76
2021/08/30 08:29:50;;;;;;;13.40;10.20;;;15.60;99.90;;;;;;4916708;29;20837;-76
2021/08/30 08:32:16;;;;;;;12.27;9.70;;;15.60;99.90;;;;;;4916428;29;20473;-77
2021/08/30 08:34:42;;;;;;;12.07;9.20;;;15.60;99.90;;;;;;4916904;29;20189;-77
2021/08/30 08:37:08;;;;;;;9.97;8.97;;;15.70;99.90;;;;;;4915366;29;20558;-77
2021/08/30 08:39:34;;;;;;;12.10;11.00;;;15.70;99.90;;;;;;4916292;29;20257;-76
2021/08/30 08:42:01;;;;;;;13.00;11.37;;;15.70;99.90;;;;;;4916232;29;20442;-76
2021/08/30 08:44:26;;;;;;;10.90;9.17;;;15.80;99.90;;;;;;4916334;29;20786;-77
2021/08/30 08:46:52;;;;;;;11.57;9.73;;;15.80;99.90;;;;;;4915216;29;20429;-77
2021/08/30 08:49:19;;;;;;;10.63;9.53;;;15.80;99.90;;;;;;4916158;29;20181;-77
2021/08/30 08:51:45;;;;;;;9.63;8.60;;;15.70;99.90;;;;;;4916373;29;20257;-78
2021/08/30 08:54:10;;;;;;;12.67;9.30;;;15.70;99.90;;;;;;4914729;29;20434;-76
2021/08/30 08:56:36;;;;;;;9.27;8.13;;;15.80;99.90;;;;;;4916279;29;20178;-76
2021/08/30 08:59:02;;;;;;;10.00;9.00;;;15.80;99.90;;;;;;4916007;29;20221;-76
2021/08/30 09:01:30;;;;;;;10.63;9.30;;;16.10;99.90;;;;;;4915378;29;20218;-76
2021/08/30 09:03:56;;;;;;;8.70;7.90;;;16.60;99.90;;;;;;4915844;29;20489;-76
2021/08/30 09:06:30;;;;;;;9.43;8.50;;;17.50;99.90;;;;;;4915993;29;20519;-76
2021/08/30 09:08:59;;;;;;;8.17;7.37;;;18.00;99.90;;;;;;4916082;29;20425;-76
2021/08/30 09:11:45;;;;;;;11.27;8.40;;;18.30;99.90;;;;;;4915208;29;20453;-76
2021/08/30 09:14:16;;;;;;;9.70;8.10;;;18.20;99.90;;;;;;4915671;29;20421;-76
2021/08/30 09:16:43;;;;;;;9.80;8.30;;;18.20;99.90;;;;;;4915715;29;20842;-76
2021/08/30 09:19:10;;;;;;;10.50;8.53;;;18.20;99.90;;;;;;4915484;29;20521;-76
2021/08/30 09:21:42;;;;;;;9.60;8.60;;;18.10;99.90;;;;;;4915312;29;20935;-76
2021/08/30 09:24:10;;;;;;;13.60;10.43;;;18.00;99.90;;;;;;4915382;29;20450;-76
2021/08/30 09:26:43;;;;;;;13.57;11.67;;;17.90;99.90;;;;;;4915665;29;20834;-76
2021/08/30 09:29:17;;;;;;;12.03;10.10;;;17.90;99.90;;;;;;4914357;29;20476;-76
2021/08/30 09:31:43;;;;;;;10.60;9.30;;;17.80;99.90;;;;;;4914690;29;20998;-76
2021/08/30 09:34:12;;;;;;;10.90;9.23;;;17.60;99.90;;;;;;4915224;29;20414;-75
2021/08/30 09:36:42;;;;;;;11.53;10.40;;;17.40;99.90;;;;;;4915448;29;20519;-76
2021/08/30 09:39:08;;;;;;;12.30;10.83;;;17.30;99.90;;;;;;4915096;29;20493;-77
2021/08/30 09:41:41;;;;;;;13.30;10.37;;;17.10;99.90;;;;;;4914965;29;20541;-76
2021/08/30 09:44:08;;;;;;;16.30;12.47;;;16.90;99.90;;;;;;4915166;29;20414;-76
2021/08/30 09:46:33;;;;;;;11.73;10.47;;;16.80;99.90;;;;;;4915287;29;20421;-76
2021/08/30 09:49:06;;;;;;;13.70;10.90;;;16.80;99.90;;;;;;4914417;29;20421;-77
2021/08/30 09:51:39;;;;;;;12.60;10.60;;;16.70;99.90;;;;;;4915407;29;20437;-78
2021/08/30 09:54:06;;;;;;;15.07;12.33;;;16.60;99.90;;;;;;4914506;29;20418;-77
2021/08/30 09:56:37;;;;;;;15.60;12.53;;;16.60;99.90;;;;;;4915489;29;20422;-78
2021/08/30 09:59:06;;;;;;;12.97;11.60;;;16.40;99.90;;;;;;4915444;29;20497;-77
2021/08/30 10:01:39;;;;;;;14.00;12.10;;;16.40;99.90;;;;;;4913757;29;21042;-76
2021/08/30 10:04:06;;;;;;;15.23;12.67;;;16.30;99.90;;;;;;4915121;29;20418;-76
2021/08/30 10:06:34;;;;;;;17.83;13.60;;;16.30;99.90;;;;;;4915326;29;20410;-77
2021/08/30 10:09:01;;;;;;;12.57;11.03;;;16.30;99.90;;;;;;4915130;29;20414;-76
2021/08/30 10:11:28;;;;;;;16.90;12.83;;;16.30;99.90;;;;;;4914976;29;20525;-77
2021/08/30 10:13:54;;;;;;;15.10;13.50;;;16.40;99.90;;;;;;4915517;29;20497;-76
2021/08/30 10:16:20;;;;;;;14.50;13.07;;;16.40;99.90;;;;;;4918709;29;20433;-76
2021/08/30 10:18:50;;;;;;;16.70;12.53;;;16.40;99.90;;;;;;4918778;29;20465;-77
2021/08/30 10:21:17;;;;;;;17.10;13.17;;;16.50;99.90;;;;;;4918387;29;20425;-76
2021/08/30 10:23:45;;;;;;;17.13;14.27;;;16.60;99.90;;;;;;4918016;29;20851;-77
2021/08/30 10:26:12;;;;;;;15.00;12.80;;;16.50;99.90;;;;;;4912442;29;20495;-77
2021/08/30 10:28:40;;;;;;;15.40;12.40;;;16.40;99.90;;;;;;4913142;29;20433;-76
2021/08/30 10:31:22;;;;;;;18.43;13.20;;;16.30;99.90;;;;;;4918553;29;20457;-76
2021/08/30 10:33:51;;;;;;;16.40;13.10;;;16.30;99.90;;;;;;4918939;29;20469;-76
2021/08/30 10:36:19;;;;;;;15.40;13.07;;;16.30;99.90;;;;;;4918879;29;20414;-76
2021/08/30 10:39:04;;;;;;;18.10;12.30;;;16.30;99.90;;;;;;4920638;29;20465;-76
2021/08/30 10:41:35;;;;;;;20.20;13.33;;;16.40;99.90;;;;;;4919473;29;20446;-76
2021/08/30 10:44:14;;;;;;;13.47;11.07;;;16.60;99.90;;;;;;4918853;29;20407;-76
2021/08/30 10:46:46;;;;;;;12.70;11.40;;;16.70;99.90;;;;;;4919483;29;20430;-76
2021/08/30 10:49:16;;;;;;;17.43;12.07;;;16.80;99.90;;;;;;4918727;29;20418;-76
2021/08/30 10:51:43;;;;;;;17.40;12.43;;;16.80;99.90;;;;;;4918367;29;20521;-76
2021/08/30 10:54:14;;;;;;;13.90;10.43;;;16.80;99.90;;;;;;4920410;29;20426;-77
2021/08/30 10:56:42;;;;;;;16.20;13.00;;;16.80;99.90;;;;;;4920072;29;20414;-77
2021/08/30 10:59:09;;;;;;;19.83;11.83;;;16.70;99.90;;;;;;4919863;29;20468;-77
2021/08/30 11:01:39;;;;;;;17.50;11.70;;;16.50;99.90;;;;;;4918741;29;20431;-77
2021/08/30 11:04:06;;;;;;;15.00;12.53;;;16.30;99.90;;;;;;4919025;29;20450;-77
2021/08/30 11:06:32;;;;;;;12.83;11.40;;;16.30;99.90;;;;;;4918357;29;20935;-76
2021/08/30 11:08:58;;;;;;;11.43;10.13;;;16.30;99.90;;;;;;4918189;29;20840;-76
2021/08/30 11:11:27;;;;;;;10.03;9.03;;;16.30;99.90;;;;;;4917910;29;20475;-76
2021/08/30 11:14:02;;;;;;;8.67;7.73;;;16.40;99.90;;;;;;4918334;29;20540;-76
2021/08/30 11:16:28;;;;;;;9.30;8.17;;;16.60;99.90;;;;;;4910592;29;21020;-75
2021/08/30 11:18:55;;;;;;;9.20;8.13;;;16.80;99.90;;;;;;4909432;29;20474;-76
2021/08/30 11:21:36;;;;;;;9.30;8.33;;;17.00;99.90;;;;;;4898837;29;20426;-76
2021/08/30 11:24:02;;;;;;;8.83;8.00;;;17.20;99.90;;;;;;4914023;29;20502;-76
2021/08/30 11:26:28;;;;;;;8.67;7.80;;;17.20;99.90;;;;;;4915723;29;20418;-76
2021/08/30 11:28:59;;;;;;;11.03;8.37;;;17.20;99.90;;;;;;4907060;29;21010;-76
2021/08/30 11:31:28;;;;;;;11.87;8.87;;;17.10;99.90;;;;;;4917498;29;20220;-76
2021/08/30 11:33:54;;;;;;;12.57;10.10;;;17.00;99.90;;;;;;4908526;29;20803;-76
2021/08/30 11:36:20;;;;;;;10.83;8.80;;;16.80;99.90;;;;;;4908360;29;20435;-74
2021/08/30 11:38:56;;;;;;;12.43;10.33;;;16.90;99.90;;;;;;4908438;29;20814;-76
2021/08/30 11:41:23;;;;;;;12.97;10.40;;;16.90;99.90;;;;;;4898802;29;20195;-76
2021/08/30 11:44:01;;;;;;;12.00;10.63;;;16.80;99.90;;;;;;4904553;29;20422;-76
2021/08/30 11:46:27;;;;;;;13.20;11.13;;;16.90;99.90;;;;;;4917669;29;20433;-75
2021/08/30 11:48:57;;;;;;;14.23;10.80;;;16.80;99.90;;;;;;4917442;29;20426;-76
2021/08/30 11:51:26;;;;;;;13.10;10.40;;;16.90;99.90;;;;;;4917050;29;20737;-76
2021/08/30 11:53:53;;;;;;;14.33;11.80;;;16.90;99.90;;;;;;4917401;29;20446;-76
2021/08/30 11:56:21;;;;;;;12.73;10.87;;;17.00;99.90;;;;;;4917260;29;20422;-76
2021/08/30 11:58:47;;;;;;;15.10;12.37;;;17.10;99.90;;;;;;4911828;29;20480;-76
2021/08/30 12:01:18;;;;;;;13.00;10.93;;;17.10;99.90;;;;;;4900473;29;21011;-76
2021/08/30 12:03:44;;;;;;;11.80;10.60;;;17.00;99.90;;;;;;4901921;29;20174;-76
2021/08/30 12:06:20;;;;;;;11.60;10.40;;;17.00;99.90;;;;;;4915823;29;20477;-76
2021/08/30 12:08:51;;;;;;;10.80;9.70;;;16.90;99.90;;;;;;4914705;29;20433;-76
2021/08/30 12:11:18;;;;;;;14.03;12.27;;;16.90;99.90;;;;;;4916805;29;20437;-77
2021/08/30 12:13:55;;;;;;;21.10;10.70;;;16.80;99.90;;;;;;4903775;29;20811;-76
2021/08/30 12:16:23;;;;;;;13.53;12.13;;;16.70;99.90;;;;;;4911673;29;20475;-76
2021/08/30 12:18:51;;;;;;;13.70;11.10;;;16.60;99.90;;;;;;4897590;29;20956;-76
2021/08/30 12:21:35;;;;;;;12.67;11.37;;;16.50;99.90;;;;;;4897650;29;20446;-76
2021/08/30 12:24:00;;;;;;;14.53;11.50;;;16.50;99.90;;;;;;4898163;29;20454;-76
2021/08/30 12:26:26;;;;;;;16.50;10.90;;;16.60;99.90;;;;;;4898372;29;20459;-76
2021/08/30 12:28:54;;;;;;;14.97;11.50;;;16.50;99.90;;;;;;4898526;29;20179;-77
2021/08/30 12:31:38;;;;;;;12.53;11.23;;;16.50;99.90;;;;;;4897646;29;20466;-76
2021/08/30 12:34:06;;;;;;;15.77;12.07;;;16.50;99.90;;;;;;4897793;29;20423;-77
2021/08/30 12:36:33;;;;;;;13.93;12.33;;;16.50;99.90;;;;;;4897013;29;20415;-76
2021/08/30 12:38:58;;;;;;;20.83;12.60;;;16.50;99.90;;;;;;4897649;29;20466;-77
2021/08/30 12:41:24;;;;;;;11.77;9.97;;;16.40;99.90;;;;;;4897560;29;20979;-76
2021/08/30 12:43:50;;;;;;;11.50;10.30;;;16.30;99.90;;;;;;4897790;29;20179;-76
2021/08/30 12:46:15;;;;;;;12.67;10.57;;;16.20;99.90;;;;;;4897523;29;20175;-76
2021/08/30 12:48:41;;;;;;;12.87;11.60;;;16.10;99.90;;;;;;4897523;29;20258;-77
2021/08/30 12:51:07;;;;;;;12.40;10.30;;;16.10;99.90;;;;;;4897383;29;20562;-75
2021/08/30 12:53:34;;;;;;;11.93;10.30;;;16.10;99.90;;;;;;4896282;29;20612;-77
2021/08/30 12:56:00;;;;;;;14.87;11.80;;;16.00;99.90;;;;;;4897786;29;20183;-76
2021/08/30 12:58:26;;;;;;;13.43;12.03;;;16.00;99.90;;;;;;4897120;29;20474;-76
2021/08/30 13:00:52;;;;;;;12.30;10.40;;;16.10;99.90;;;;;;4897458;29;20431;-76
2021/08/30 13:03:18;;;;;;;11.53;10.33;;;16.10;99.90;;;;;;4897125;29;20486;-76
2021/08/30 13:05:44;;;;;;;13.40;11.50;;;16.30;99.90;;;;;;4897361;29;20554;-77
2021/08/30 13:08:11;;;;;;;14.70;12.33;;;16.40;99.90;;;;;;4896981;29;20438;-76
2021/08/30 13:10:38;;;;;;;11.77;10.50;;;16.40;99.90;;;;;;4897315;29;20607;-75
2021/08/30 13:13:05;;;;;;;11.43;10.17;;;16.50;99.90;;;;;;4897155;29;20411;-76
2021/08/30 13:15:31;;;;;;;11.17;9.97;;;16.60;99.90;;;;;;4897059;29;20426;-77
2021/08/30 13:17:57;;;;;;;10.53;9.37;;;16.80;99.90;;;;;;4897052;29;20553;-76
2021/08/30 13:20:22;;;;;;;10.40;9.20;;;17.00;99.90;;;;;;4896889;29;20541;-75
2021/08/30 13:22:48;;;;;;;12.60;8.57;;;17.10;99.90;;;;;;4896779;29;20339;-76
2021/08/30 13:25:17;;;;;;;15.07;9.70;;;17.20;99.90;;;;;;4896804;29;20174;-76
2021/08/30 13:27:45;;;;;;;11.30;10.20;;;17.20;99.90;;;;;;4897026;29;20430;-76
2021/08/30 13:30:12;;;;;;;10.63;9.40;;;17.20;99.90;;;;;;4896747;29;20450;-76
2021/08/30 13:32:38;;;;;;;11.13;9.60;;;17.20;99.90;;;;;;4896643;29;20843;-76
2021/08/30 13:35:05;;;;;;;11.20;10.10;;;17.20;99.90;;;;;;4896879;29;20419;-76
2021/08/30 13:37:31;;;;;;;11.97;10.77;;;17.20;99.90;;;;;;4895359;29;20186;-76
2021/08/30 13:39:56;;;;;;;10.00;9.00;;;17.20;99.90;;;;;;4896859;29;20408;-76
2021/08/30 13:42:22;;;;;;;11.10;6.80;;;17.00;99.90;;;;;;4896292;29;20200;-76
2021/08/30 13:44:47;;;;;;;10.47;8.90;;;16.60;99.90;;;;;;4898297;29;20201;-76
2021/08/30 13:47:13;;;;;;;9.07;8.07;;;16.50;99.90;;;;;;4907293;29;20186;-79
2021/08/30 13:49:39;;;;;;;11.53;8.77;;;16.30;99.90;;;;;;4915993;29;20186;-82
2021/08/30 13:52:05;;;;;;;11.27;8.43;;;16.20;99.90;;;;;;4915225;29;20500;-76
2021/08/30 13:54:31;;;;;;;7.50;6.80;;;16.00;99.90;;;;;;4915380;29;20272;-76
2021/08/30 13:56:56;;;;;;;6.77;6.10;;;15.90;99.90;;;;;;4914119;29;20951;-77
2021/08/30 13:59:22;;;;;;;8.20;7.33;;;15.80;99.90;;;;;;4914829;29;20565;-76
2021/08/30 14:01:47;;;;;;;8.93;8.07;;;15.70;99.90;;;;;;4914994;29;20209;-75
2021/08/30 14:04:13;;;;;;;8.13;7.33;;;15.60;99.90;;;;;;4914798;29;20189;-76
2021/08/30 14:06:39;;;;;;;10.50;6.33;;;15.60;99.90;;;;;;4915273;29;20554;-76
2021/08/30 14:09:05;;;;;;;14.63;7.10;;;15.60;99.90;;;;;;4915009;29;20186;-76
2021/08/30 14:11:31;;;;;;;6.63;5.93;;;15.70;99.90;;;;;;4914903;29;20548;-75
2021/08/30 14:13:56;;;;;;;11.30;7.70;;;15.60;99.90;;;;;;4913783;29;20433;-76
2021/08/30 14:16:22;;;;;;;8.80;7.40;;;15.70;99.90;;;;;;4914973;29;20186;-76
2021/08/30 14:18:48;;;;;;;9.40;7.40;;;15.70;99.90;;;;;;4914896;29;20217;-76
2021/08/30 14:21:13;;;;;;;9.63;8.20;;;15.80;99.90;;;;;;4914694;29;20202;-76
2021/08/30 14:23:39;;;;;;;8.17;6.63;;;15.80;99.90;;;;;;4914895;29;20185;-76
2021/08/30 14:26:05;;;;;;;9.87;8.60;;;15.80;99.90;;;;;;4915055;29;20186;-76
2021/08/30 14:28:31;;;;;;;10.00;7.53;;;16.00;99.90;;;;;;4914795;29;20204;-76
2021/08/30 14:30:57;;;;;;;8.73;7.83;;;16.10;99.90;;;;;;4913114;29;20217;-76
2021/08/30 14:33:25;;;;;;;9.80;7.80;;;16.10;99.90;;;;;;4914738;29;20425;-76
2021/08/30 14:35:50;;;;;;;10.30;8.23;;;16.20;99.90;;;;;;4915067;29;20912;-76
2021/08/30 14:38:16;;;;;;;9.33;7.90;;;16.20;99.90;;;;;;4914641;29;20472;-76
2021/08/30 14:40:43;;;;;;;13.17;8.43;;;16.20;99.90;;;;;;4914692;29;20182;-76
2021/08/30 14:43:10;;;;;;;10.37;8.20;;;16.30;99.90;;;;;;4914615;29;20664;-76
2021/08/30 14:45:35;;;;;;;9.07;8.17;;;16.40;99.90;;;;;;4913563;29;20428;-77
2021/08/30 14:48:02;;;;;;;11.70;8.17;;;16.40;99.90;;;;;;4915327;29;20500;-77
2021/08/30 14:50:28;;;;;;;12.10;9.73;;;16.50;99.90;;;;;;4914896;29;20190;-76
2021/08/30 14:52:53;;;;;;;11.60;9.53;;;16.60;99.90;;;;;;4914784;29;20434;-76
2021/08/30 14:55:19;;;;;;;10.43;8.53;;;16.80;99.90;;;;;;4914566;29;20217;-77
2021/08/30 14:57:44;;;;;;;9.43;8.53;;;16.90;99.90;;;;;;4914761;29;20641;-76
2021/08/30 15:00:11;;;;;;;9.67;8.77;;;17.00;99.90;;;;;;4915245;29;20551;-76
2021/08/30 15:02:37;;;;;;;9.47;8.57;;;17.20;99.90;;;;;;4918342;29;20194;-76
2021/08/30 15:05:07;;;;;;;9.93;8.93;;;17.30;99.90;;;;;;4918048;29;20414;-76
2021/08/30 15:07:33;;;;;;;9.03;7.53;;;17.30;99.90;;;;;;4918331;29;20505;-76
2021/08/30 15:09:59;;;;;;;9.30;8.37;;;17.30;99.90;;;;;;4918222;29;20526;-76
2021/08/30 15:12:25;;;;;;;9.13;8.17;;;17.30;99.90;;;;;;4918044;29;20255;-75
2021/08/30 15:14:50;;;;;;;8.90;8.10;;;17.30;99.90;;;;;;4917859;29;20182;-76
2021/08/30 15:17:16;;;;;;;8.50;7.30;;;17.20;99.90;;;;;;4917855;29;20417;-76
2021/08/30 15:19:41;;;;;;;8.67;7.53;;;17.10;99.90;;;;;;4917840;29;20200;-76
2021/08/30 15:22:09;;;;;;;11.43;7.87;;;17.00;99.90;;;;;;4917635;29;20684;-76
2021/08/30 15:24:35;;;;;;;9.27;7.90;;;16.90;99.90;;;;;;4919665;29;20216;-77
2021/08/30 15:27:01;;;;;;;12.67;8.70;;;16.90;99.90;;;;;;4917321;29;20458;-77
2021/08/30 15:29:31;;;;;;;9.23;8.23;;;16.90;99.90;;;;;;4917902;29;20465;-76
2021/08/30 15:31:58;;;;;;;10.43;8.83;;;16.80;99.90;;;;;;4918276;29;20843;-76
2021/08/30 15:34:24;;;;;;;9.80;7.97;;;16.80;99.90;;;;;;4916802;29;20525;-77
2021/08/30 15:36:50;;;;;;;8.70;7.80;;;16.90;99.90;;;;;;4917906;29;20501;-76
2021/08/30 15:39:16;;;;;;;9.70;8.37;;;17.00;99.90;;;;;;4916762;29;20252;-76
2021/08/30 15:41:42;;;;;;;10.60;8.40;;;16.90;99.90;;;;;;4917705;29;20891;-76
2021/08/30 15:44:08;;;;;;;8.50;7.70;;;16.90;99.90;;;;;;4917295;29;20591;-77
2021/08/30 15:46:34;;;;;;;9.10;8.20;;;17.00;99.90;;;;;;4917376;29;20189;-77
2021/08/30 15:48:59;;;;;;;10.43;9.30;;;16.90;99.90;;;;;;4917823;29;20418;-76
2021/08/30 15:51:28;;;;;;;9.83;8.30;;;16.90;99.90;;;;;;4917808;29;20517;-76
2021/08/30 15:53:54;;;;;;;10.10;8.00;;;16.90;99.90;;;;;;4917273;29;20663;-76
2021/08/30 15:56:20;;;;;;;13.90;8.37;;;16.90;99.90;;;;;;4917185;29;20457;-76
2021/08/30 15:58:45;;;;;;;9.93;8.27;;;17.00;99.90;;;;;;4916989;29;20615;-76
2021/08/30 16:01:11;;;;;;;11.40;9.47;;;17.00;99.90;;;;;;4916841;29;20261;-76
2021/08/30 16:03:37;;;;;;;9.90;8.43;;;17.00;99.90;;;;;;4917122;29;20226;-76
2021/08/30 16:06:02;;;;;;;10.40;8.00;;;17.00;99.90;;;;;;4917028;29;20418;-75
2021/08/30 16:08:28;;;;;;;12.20;9.63;;;17.00;99.90;;;;;;4917002;29;20193;-76
2021/08/30 16:10:54;;;;;;;10.57;9.50;;;17.00;99.90;;;;;;4917154;29;20194;-76
2021/08/30 16:13:21;;;;;;;10.60;9.50;;;17.00;99.90;;;;;;4916486;29;20178;-76
2021/08/30 16:15:47;;;;;;;13.37;10.97;;;17.00;99.90;;;;;;4917136;29;20758;-76
2021/08/30 16:18:13;;;;;;;15.27;11.33;;;16.90;99.90;;;;;;4917053;29;20454;-76
2021/08/30 16:20:39;;;;;;;12.47;10.57;;;16.90;99.90;;;;;;4917095;29;20903;-76
2021/08/30 16:23:05;;;;;;;14.40;11.63;;;16.90;99.90;;;;;;4918423;29;20938;-76
2021/08/30 16:25:31;;;;;;;12.50;10.83;;;16.90;99.90;;;;;;4916835;29;20515;-76
2021/08/30 16:27:57;;;;;;;13.60;11.47;;;16.80;99.90;;;;;;4916831;29;20422;-76
2021/08/30 16:30:23;;;;;;;13.03;11.73;;;16.90;99.90;;;;;;4916572;29;20477;-75
2021/08/30 16:32:49;;;;;;;12.67;11.37;;;16.90;99.90;;;;;;4916388;29;20217;-76
2021/08/30 16:35:15;;;;;;;15.07;11.37;;;16.80;99.90;;;;;;4916587;29;20178;-76
2021/08/30 16:37:42;;;;;;;13.63;11.60;;;16.80;99.90;;;;;;4916706;29;20513;-76
2021/08/30 16:40:13;;;;;;;12.00;10.50;;;16.80;99.90;;;;;;4916512;29;20166;-76
2021/08/30 16:42:39;;;;;;;13.20;11.37;;;16.90;99.90;;;;;;4916612;29;20438;-76
2021/08/30 16:45:06;;;;;;;12.50;11.23;;;16.80;99.90;;;;;;4916442;29;20425;-76
2021/08/30 16:47:33;;;;;;;13.23;9.30;;;16.80;99.90;;;;;;4916468;29;20536;-75
2021/08/30 16:49:59;;;;;;;11.60;10.40;;;16.80;99.90;;;;;;4916388;29;20857;-75
2021/08/30 16:52:24;;;;;;;13.17;10.70;;;16.70;99.90;;;;;;4916036;29;20430;-75
2021/08/30 16:54:52;;;;;;;11.70;9.80;;;16.80;99.90;;;;;;4916399;29;20197;-76
2021/08/30 16:57:18;;;;;;;12.10;10.30;;;16.80;99.90;;;;;;4916381;29;20603;-77
2021/08/30 16:59:43;;;;;;;12.23;10.63;;;16.80;99.90;;;;;;4916246;29;20462;-77
2021/08/30 17:02:09;;;;;;;12.07;9.73;;;16.70;99.90;;;;;;4916074;29;20448;-76